Time;durP1;ratioP1;P1;durP2;ratioP2;P2;SDS_P1;SDS_P2;PMS_P1;PMS_P2;Temp;Humidity;BMP_temperature;BMP_pressure;BME280_temperature;BME280_humidity;BME280_pressure;Samples;Min_cycle;Max_cycle;Signal;HPM_P1;HPM_P2
2020/12/15 00:00:25;;;;;;;17.15;5.57;;;11.20;62.90;;;;;;6260420;28;20048;-72
2020/12/15 00:03:25;;;;;;;12.30;5.15;;;11.10;62.80;;;;;;6257154;28;20362;-72
2020/12/15 00:06:33;;;;;;;11.75;4.70;;;11.20;62.90;;;;;;6257319;28;20362;-73
2020/12/15 00:09:34;;;;;;;11.63;4.93;;;11.10;62.80;;;;;;6257610;28;20029;-72
2020/12/15 00:12:35;;;;;;;14.40;4.30;;;11.10;62.80;;;;;;6261665;28;20064;-73
2020/12/15 00:15:36;;;;;;;11.45;4.50;;;11.10;62.70;;;;;;6262184;28;20048;-71
2020/12/15 00:18:38;;;;;;;10.63;4.45;;;11.10;62.70;;;;;;6264537;28;20466;-72
2020/12/15 00:21:43;;;;;;;14.10;4.90;;;11.00;62.60;;;;;;6260769;28;20036;-73
2020/12/15 00:24:45;;;;;;;12.48;4.45;;;11.00;62.80;;;;;;6258751;28;20045;-72
2020/12/15 00:27:46;;;;;;;10.75;5.57;;;11.00;62.90;;;;;;6260031;28;20033;-72
2020/12/15 00:30:47;;;;;;;13.88;5.10;;;11.00;62.90;;;;;;6254729;28;20051;-72
2020/12/15 00:33:48;;;;;;;9.93;5.07;;;11.00;62.90;;;;;;6249186;28;20120;-72
2020/12/15 00:36:50;;;;;;;12.82;4.10;;;11.00;63.20;;;;;;6261767;28;20044;-73
2020/12/15 00:39:51;;;;;;;16.27;4.78;;;10.90;63.20;;;;;;6257191;28;20045;-73
2020/12/15 00:42:51;;;;;;;11.27;5.10;;;10.80;63.50;;;;;;6261850;28;20381;-72
2020/12/15 00:45:52;;;;;;;12.77;4.95;;;10.80;63.60;;;;;;6261467;28;20082;-73
2020/12/15 00:48:53;;;;;;;12.77;5.13;;;10.80;63.70;;;;;;6250983;28;20032;-73
2020/12/15 00:51:54;;;;;;;10.48;4.25;;;10.90;63.60;;;;;;6255273;28;20117;-73
2020/12/15 00:54:55;;;;;;;11.40;4.38;;;10.90;63.50;;;;;;6242430;28;20030;-73
2020/12/15 00:57:56;;;;;;;12.85;5.93;;;11.00;63.50;;;;;;6259935;28;20462;-73
2020/12/15 01:00:58;;;;;;;9.82;4.75;;;11.00;63.20;;;;;;6263655;28;20033;-72
2020/12/15 01:03:59;;;;;;;10.80;5.32;;;11.10;63.10;;;;;;6249057;28;20040;-73
2020/12/15 01:07:00;;;;;;;17.75;5.80;;;11.20;63.00;;;;;;6245604;28;20370;-73
2020/12/15 01:10:04;;;;;;;17.77;5.10;;;11.20;62.80;;;;;;6258069;28;20045;-73
2020/12/15 01:13:06;;;;;;;10.73;4.63;;;11.30;62.80;;;;;;6249209;28;20030;-73
2020/12/15 01:16:09;;;;;;;10.45;4.53;;;11.30;62.70;;;;;;6263258;28;20065;-73
2020/12/15 01:19:12;;;;;;;9.60;4.53;;;11.30;62.70;;;;;;6257522;28;20064;-72
2020/12/15 01:22:14;;;;;;;10.25;4.97;;;11.30;62.80;;;;;;6260666;28;20033;-72
2020/12/15 01:25:16;;;;;;;13.32;5.82;;;11.30;62.90;;;;;;6243061;28;20467;-72
2020/12/15 01:28:30;;;;;;;13.90;5.28;;;11.30;62.90;;;;;;6244426;28;20045;-72
2020/12/15 01:31:31;;;;;;;13.25;5.75;;;11.20;63.00;;;;;;6255239;28;20057;-72
2020/12/15 01:34:47;;;;;;;11.30;4.85;;;11.20;63.20;;;;;;6244990;28;20041;-73
2020/12/15 01:37:48;;;;;;;17.15;5.20;;;11.20;63.30;;;;;;6248886;28;20045;-72
2020/12/15 01:40:57;;;;;;;11.02;5.18;;;11.20;63.30;;;;;;6260392;28;20053;-72
2020/12/15 01:44:03;;;;;;;15.63;5.63;;;11.30;63.30;;;;;;6239637;28;20056;-72
2020/12/15 01:47:14;;;;;;;18.83;4.63;;;11.30;63.30;;;;;;6240564;28;20037;-73
2020/12/15 01:50:17;;;;;;;12.05;5.03;;;11.30;63.20;;;;;;6252202;28;20041;-73
2020/12/15 01:53:19;;;;;;;9.27;4.55;;;11.40;63.10;;;;;;6259148;28;20540;-72
2020/12/15 01:56:24;;;;;;;13.55;4.88;;;11.40;62.90;;;;;;6258837;28;20045;-71
2020/12/15 01:59:27;;;;;;;11.57;4.88;;;11.40;62.80;;;;;;6261338;28;20490;-71
2020/12/15 02:02:30;;;;;;;10.95;4.93;;;11.50;62.80;;;;;;6263652;28;20103;-71
2020/12/15 02:05:39;;;;;;;17.85;4.40;;;11.50;62.80;;;;;;6253862;28;20060;-71
2020/12/15 02:08:42;;;;;;;8.32;3.97;;;11.50;62.70;;;;;;6258937;28;20025;-71
2020/12/15 02:11:46;;;;;;;11.80;4.95;;;11.50;62.50;;;;;;6259878;28;20124;-73
2020/12/15 02:14:48;;;;;;;8.27;4.45;;;11.50;62.50;;;;;;6260119;28;20048;-72
2020/12/15 02:17:57;;;;;;;6.13;3.58;;;11.50;62.50;;;;;;6255627;28;20378;-71
2020/12/15 02:21:10;;;;;;;8.98;4.10;;;11.50;62.50;;;;;;6252332;28;20484;-72
2020/12/15 02:24:40;;;;;;;10.45;5.05;;;11.50;62.50;;;;;;6235530;28;20030;-72
2020/12/15 02:27:46;;;;;;;7.60;3.75;;;11.40;62.30;;;;;;6219735;28;20033;-71
2020/12/15 02:30:48;;;;;;;11.50;5.15;;;11.30;62.20;;;;;;6215770;28;20475;-72
2020/12/15 02:34:00;;;;;;;13.50;5.20;;;11.30;62.40;;;;;;6210614;28;20033;-72
2020/12/15 02:37:10;;;;;;;7.07;3.88;;;11.20;62.70;;;;;;6202480;28;20045;-72
2020/12/15 02:40:25;;;;;;;8.98;4.07;;;11.20;62.80;;;;;;6236433;28;20378;-72
2020/12/15 02:43:43;;;;;;;9.93;4.07;;;11.10;62.80;;;;;;6231258;28;20054;-72
2020/12/15 02:46:47;;;;;;;9.95;4.13;;;11.10;62.80;;;;;;6220155;28;20409;-72
2020/12/15 02:49:49;;;;;;;16.35;4.82;;;11.20;62.80;;;;;;6218703;28;20088;-72
2020/12/15 02:52:50;;;;;;;9.15;4.53;;;11.10;63.00;;;;;;6222111;28;20072;-72
2020/12/15 02:55:51;;;;;;;11.20;4.90;;;11.20;63.00;;;;;;6203611;28;20041;-72
2020/12/15 02:58:59;;;;;;;12.03;5.17;;;11.20;63.00;;;;;;6220428;28;20494;-72
2020/12/15 03:02:00;;;;;;;10.57;4.45;;;11.20;63.00;;;;;;6224414;28;20033;-71
2020/12/15 03:05:01;;;;;;;10.43;4.50;;;11.30;63.10;;;;;;6258179;28;20033;-72
2020/12/15 03:08:02;;;;;;;9.75;4.93;;;11.30;63.10;;;;;;6254716;28;20087;-71
2020/12/15 03:11:05;;;;;;;10.10;4.57;;;11.40;63.00;;;;;;6254954;28;20065;-72
2020/12/15 03:14:10;;;;;;;8.68;4.03;;;11.40;63.00;;;;;;6239745;28;20029;-72
2020/12/15 03:17:11;;;;;;;12.13;4.60;;;11.50;63.00;;;;;;6241815;28;20029;-73
2020/12/15 03:20:12;;;;;;;9.00;4.30;;;11.50;62.90;;;;;;6257379;28;20052;-71
2020/12/15 03:23:17;;;;;;;6.97;3.83;;;11.50;62.90;;;;;;6241616;28;20025;-73
2020/12/15 03:26:19;;;;;;;16.63;4.10;;;11.50;62.70;;;;;;6214086;28;20038;-73
2020/12/15 03:29:20;;;;;;;8.43;3.40;;;11.60;62.70;;;;;;6231411;28;20143;-73
2020/12/15 03:32:22;;;;;;;13.73;5.22;;;11.60;62.50;;;;;;6221175;28;20053;-73
2020/12/15 03:35:27;;;;;;;9.45;3.67;;;11.60;62.30;;;;;;6232263;28;20112;-72
2020/12/15 03:38:29;;;;;;;10.43;4.13;;;11.60;62.20;;;;;;6243916;28;20061;-72
2020/12/15 03:41:32;;;;;;;10.25;3.97;;;11.60;62.10;;;;;;6258757;28;20044;-72
2020/12/15 03:44:49;;;;;;;10.00;4.00;;;11.60;62.00;;;;;;6234070;28;20064;-72
2020/12/15 03:47:51;;;;;;;9.88;3.72;;;11.70;62.10;;;;;;6259472;28;20120;-72
2020/12/15 03:50:52;;;;;;;10.68;4.88;;;11.70;62.10;;;;;;6255832;28;20048;-73
2020/12/15 03:54:02;;;;;;;13.45;4.82;;;11.60;62.20;;;;;;6244082;28;20044;-71
2020/12/15 03:57:04;;;;;;;14.73;4.53;;;11.60;62.80;;;;;;6254155;28;20454;-72
2020/12/15 04:00:13;;;;;;;13.43;4.30;;;11.60;62.90;;;;;;6258433;28;20116;-72
2020/12/15 04:03:20;;;;;;;8.95;4.32;;;11.60;63.10;;;;;;6255350;28;20067;-72
2020/12/15 04:06:37;;;;;;;9.65;4.07;;;11.60;63.10;;;;;;6245560;28;20484;-71
2020/12/15 04:09:45;;;;;;;7.75;3.97;;;11.60;63.10;;;;;;6258614;28;20493;-73
2020/12/15 04:12:46;;;;;;;10.05;3.90;;;11.70;63.10;;;;;;6226555;28;20037;-72
2020/12/15 04:15:47;;;;;;;11.80;4.45;;;11.70;63.20;;;;;;6235909;28;20061;-72
2020/12/15 04:18:53;;;;;;;8.20;3.90;;;11.70;63.20;;;;;;6258488;28;20038;-72
2020/12/15 04:21:56;;;;;;;13.98;4.50;;;11.70;63.30;;;;;;6243995;28;20044;-72
2020/12/15 04:25:08;;;;;;;10.00;3.95;;;11.70;63.60;;;;;;6265415;28;20029;-72
2020/12/15 04:28:14;;;;;;;14.10;5.30;;;11.70;63.60;;;;;;6265385;28;20121;-72
2020/12/15 04:31:14;;;;;;;11.05;4.60;;;11.70;63.60;;;;;;6260938;28;20024;-72
2020/12/15 04:34:16;;;;;;;8.40;4.72;;;11.70;63.60;;;;;;6244060;28;20095;-72
2020/12/15 04:37:18;;;;;;;13.00;5.20;;;11.70;63.70;;;;;;6262767;28;20563;-73
2020/12/15 04:40:31;;;;;;;12.82;5.25;;;11.70;63.90;;;;;;6246241;28;20033;-72
2020/12/15 04:43:34;;;;;;;19.30;5.25;;;11.70;63.90;;;;;;6246519;28;20458;-72
2020/12/15 04:46:45;;;;;;;14.40;5.70;;;11.70;63.90;;;;;;6245327;28;20043;-72
2020/12/15 04:49:59;;;;;;;12.18;5.28;;;11.70;63.90;;;;;;6259484;28;20033;-73
2020/12/15 04:53:11;;;;;;;12.85;4.55;;;11.70;64.10;;;;;;6244321;28;20113;-72
2020/12/15 04:56:32;;;;;;;16.52;4.40;;;11.70;64.20;;;;;;6258722;28;20392;-71
2020/12/15 04:59:54;;;;;;;9.38;4.10;;;11.80;64.10;;;;;;6244212;28;20049;-72
2020/12/15 05:03:08;;;;;;;12.73;3.95;;;11.70;63.90;;;;;;6227843;28;20041;-71
2020/12/15 05:06:15;;;;;;;8.68;3.50;;;11.80;63.70;;;;;;6232688;28;20046;-72
2020/12/15 05:09:29;;;;;;;10.90;4.22;;;11.70;63.60;;;;;;6225479;28;20518;-73
2020/12/15 05:12:31;;;;;;;7.07;3.63;;;11.80;63.50;;;;;;6253172;28;20040;-72
2020/12/15 05:15:33;;;;;;;10.52;3.65;;;11.80;63.40;;;;;;6256884;28;20042;-72
2020/12/15 05:18:46;;;;;;;9.00;4.38;;;11.80;63.40;;;;;;6261256;28;20481;-72
2020/12/15 05:21:57;;;;;;;7.43;3.83;;;11.90;63.40;;;;;;6263048;28;20061;-72
2020/12/15 05:25:01;;;;;;;11.52;3.80;;;11.90;63.20;;;;;;6258516;28;20114;-72
2020/12/15 05:28:14;;;;;;;5.70;3.30;;;11.90;63.10;;;;;;6263421;28;20054;-72
2020/12/15 05:31:22;;;;;;;13.25;4.03;;;11.80;63.20;;;;;;6218683;28;20357;-72
2020/12/15 05:35:08;;;;;;;8.45;3.58;;;11.70;63.50;;;;;;6249964;28;20037;-72
2020/12/15 05:38:27;;;;;;;6.25;2.90;;;11.70;63.80;;;;;;6256452;28;20033;-72
2020/12/15 05:42:08;;;;;;;11.98;3.90;;;11.70;63.90;;;;;;6244122;28;20045;-74
2020/12/15 05:45:19;;;;;;;15.43;3.65;;;11.60;63.90;;;;;;6245273;28;20037;-72
2020/12/15 05:48:26;;;;;;;10.43;4.20;;;11.60;63.80;;;;;;6257380;28;20331;-71
2020/12/15 05:51:43;;;;;;;6.93;3.53;;;11.70;64.00;;;;;;6255087;28;20026;-71
2020/12/15 05:54:44;;;;;;;8.65;4.05;;;11.60;64.00;;;;;;6262081;28;20094;-73
2020/12/15 05:57:45;;;;;;;8.13;4.03;;;11.70;64.00;;;;;;6246480;28;20025;-72
2020/12/15 06:00:46;;;;;;;7.80;3.50;;;11.60;64.00;;;;;;6258937;28;20651;-72
2020/12/15 06:03:57;;;;;;;7.90;3.17;;;11.60;64.10;;;;;;6260537;28;20041;-73
2020/12/15 06:07:01;;;;;;;9.45;4.10;;;11.60;64.10;;;;;;6257929;28;20032;-73
2020/12/15 06:14:17;;;;;;;8.98;3.38;;;11.60;64.30;;;;;;6252062;28;20049;-73
2020/12/15 06:21:18;;;;;;;9.52;3.70;;;11.50;64.70;;;;;;6257801;28;20044;-73
2020/12/15 06:24:30;;;;;;;11.63;4.22;;;11.50;64.70;;;;;;6257065;28;20076;-73
2020/12/15 06:27:33;;;;;;;7.30;3.60;;;11.50;64.60;;;;;;6252421;28;20041;-73
2020/12/15 06:30:39;;;;;;;9.73;3.80;;;11.60;64.50;;;;;;6253907;28;20098;-73
2020/12/15 06:33:39;;;;;;;13.45;4.60;;;11.60;64.50;;;;;;6254403;28;20111;-73
2020/12/15 06:36:40;;;;;;;18.08;4.68;;;11.60;64.40;;;;;;6244263;28;20048;-73
2020/12/15 06:40:01;;;;;;;9.95;4.65;;;11.70;64.50;;;;;;6254586;28;20037;-72
2020/12/15 06:43:02;;;;;;;11.15;4.30;;;11.70;64.40;;;;;;6254549;28;20382;-72
2020/12/15 06:46:07;;;;;;;8.18;3.88;;;11.70;64.40;;;;;;6257067;28;20072;-73
2020/12/15 06:49:10;;;;;;;8.80;3.85;;;11.70;64.50;;;;;;6232305;28;20148;-73
2020/12/15 06:52:11;;;;;;;9.18;4.20;;;11.70;64.70;;;;;;6249780;28;20032;-74
2020/12/15 06:55:12;;;;;;;9.93;4.18;;;11.70;64.80;;;;;;6233916;28;20075;-73
2020/12/15 06:58:22;;;;;;;9.57;4.60;;;11.70;64.90;;;;;;6245261;28;20032;-73
2020/12/15 07:01:25;;;;;;;10.52;4.25;;;11.70;65.10;;;;;;6239765;28;20037;-73
2020/12/15 07:04:27;;;;;;;11.70;4.32;;;11.70;65.10;;;;;;6242735;28;20366;-73
2020/12/15 07:07:49;;;;;;;11.68;3.85;;;11.70;65.20;;;;;;6245790;28;20531;-72
2020/12/15 07:10:49;;;;;;;12.57;4.60;;;11.70;65.20;;;;;;6229660;28;20056;-72
2020/12/15 07:13:56;;;;;;;10.50;3.80;;;11.70;65.20;;;;;;6218012;28;20037;-72
2020/12/15 07:16:57;;;;;;;11.90;4.20;;;11.70;65.20;;;;;;6228217;28;20076;-72
2020/12/15 07:20:01;;;;;;;7.63;3.67;;;11.70;65.10;;;;;;6230037;28;20046;-73
2020/12/15 07:23:02;;;;;;;8.77;3.92;;;11.70;65.20;;;;;;6227136;28;20053;-73
2020/12/15 07:26:12;;;;;;;16.17;4.60;;;11.70;65.10;;;;;;6231778;28;20125;-74
2020/12/15 07:29:17;;;;;;;11.23;5.30;;;11.60;65.00;;;;;;6233561;28;20056;-73
2020/12/15 07:32:19;;;;;;;11.10;3.97;;;11.60;65.10;;;;;;6233183;28;20414;-72
2020/12/15 07:35:22;;;;;;;14.25;4.25;;;11.70;65.20;;;;;;6228160;28;20049;-72
2020/12/15 07:38:24;;;;;;;13.70;4.28;;;11.70;65.20;;;;;;6217495;28;20068;-72
2020/12/15 07:41:26;;;;;;;7.38;3.85;;;11.70;65.10;;;;;;6230127;28;20117;-73
2020/12/15 07:44:28;;;;;;;8.48;4.70;;;11.70;65.10;;;;;;6231066;28;20114;-72
2020/12/15 07:47:37;;;;;;;5.93;3.80;;;11.70;65.20;;;;;;6233623;28;20533;-73
2020/12/15 07:50:37;;;;;;;8.82;3.85;;;11.70;65.40;;;;;;6257572;28;20087;-72
2020/12/15 07:53:48;;;;;;;11.15;4.20;;;11.80;65.40;;;;;;6249251;28;20033;-72
2020/12/15 07:56:52;;;;;;;7.20;4.10;;;11.80;65.40;;;;;;6260850;28;20068;-73
2020/12/15 07:59:54;;;;;;;9.40;4.22;;;11.90;65.50;;;;;;6232817;28;20142;-72
2020/12/15 08:03:01;;;;;;;9.60;4.53;;;11.90;66.30;;;;;;6258456;28;20125;-73
2020/12/15 08:06:10;;;;;;;11.00;4.88;;;12.00;65.50;;;;;;6259000;28;20099;-73
2020/12/15 08:09:13;;;;;;;11.20;3.83;;;12.00;65.30;;;;;;6259018;28;20036;-72
2020/12/15 08:12:15;;;;;;;8.20;4.43;;;12.10;65.10;;;;;;6261236;28;20041;-72
2020/12/15 08:15:17;;;;;;;8.38;4.63;;;12.10;65.00;;;;;;6256807;28;20053;-73
2020/12/15 08:18:18;;;;;;;12.98;4.88;;;12.20;65.00;;;;;;6232016;28;20033;-73
2020/12/15 08:21:21;;;;;;;11.23;4.60;;;12.30;64.90;;;;;;6262881;28;20034;-73
2020/12/15 08:24:27;;;;;;;12.43;4.68;;;12.30;64.70;;;;;;6248332;28;20053;-73
2020/12/15 08:27:29;;;;;;;8.77;4.28;;;12.40;64.40;;;;;;6252986;28;20045;-73
2020/12/15 08:30:30;;;;;;;11.45;4.95;;;12.40;64.10;;;;;;6264831;28;20037;-72
2020/12/15 08:33:31;;;;;;;9.32;4.63;;;12.40;64.00;;;;;;6259716;28;20080;-72
2020/12/15 08:36:46;;;;;;;13.30;4.88;;;12.40;64.10;;;;;;6261859;28;20500;-71
2020/12/15 08:39:55;;;;;;;5.97;3.67;;;12.40;64.20;;;;;;6250290;28;20045;-72
2020/12/15 08:43:03;;;;;;;10.82;5.03;;;12.50;64.20;;;;;;6259850;28;20033;-72
2020/12/15 08:46:17;;;;;;;10.65;4.55;;;12.50;64.00;;;;;;6263719;28;20045;-73
2020/12/15 08:49:18;;;;;;;10.48;3.75;;;12.60;64.10;;;;;;6244303;28;20774;-73
2020/12/15 08:52:22;;;;;;;17.95;4.82;;;12.50;63.90;;;;;;6256108;28;20704;-72
2020/12/15 08:55:27;;;;;;;15.50;5.65;;;12.50;63.80;;;;;;6257158;28;20029;-73
2020/12/15 08:58:28;;;;;;;11.02;4.28;;;12.50;64.00;;;;;;6262194;28;20060;-72
2020/12/15 09:01:29;;;;;;;7.93;3.88;;;12.40;64.10;;;;;;6242465;28;20053;-72
2020/12/15 09:04:30;;;;;;;10.85;4.13;;;12.40;64.30;;;;;;6262393;28;20025;-73
2020/12/15 09:07:31;;;;;;;7.60;3.58;;;12.40;64.40;;;;;;6241624;28;20045;-72
2020/12/15 09:10:33;;;;;;;9.98;4.30;;;12.50;64.50;;;;;;6257664;28;20042;-72
2020/12/15 09:13:35;;;;;;;9.18;3.60;;;12.50;64.40;;;;;;6263339;28;20148;-73
2020/12/15 09:20:52;;;;;;;7.63;3.55;;;12.70;64.40;;;;;;6254609;28;20037;-73
2020/12/15 09:23:54;;;;;;;7.13;3.03;;;12.80;64.20;;;;;;6259444;28;20331;-72
2020/12/15 09:26:55;;;;;;;22.58;5.88;;;12.90;64.10;;;;;;6249485;28;20048;-72
2020/12/15 09:29:56;;;;;;;12.05;4.28;;;12.90;64.00;;;;;;6259754;28;20426;-72
2020/12/15 09:32:57;;;;;;;8.27;3.20;;;13.00;64.00;;;;;;6253347;28;20033;-73
2020/12/15 09:35:58;;;;;;;7.90;3.33;;;13.10;64.00;;;;;;6247074;28;20057;-74
2020/12/15 09:38:59;;;;;;;14.13;6.03;;;13.20;63.80;;;;;;6256725;28;20041;-74
2020/12/15 09:42:03;;;;;;;7.13;3.72;;;13.30;63.60;;;;;;6237478;28;20029;-74
2020/12/15 09:45:05;;;;;;;8.60;3.70;;;13.40;63.30;;;;;;6252402;28;20072;-73
2020/12/15 09:48:07;;;;;;;8.98;3.78;;;13.60;63.20;;;;;;6251490;28;20160;-72
2020/12/15 09:51:11;;;;;;;6.82;3.65;;;13.70;62.80;;;;;;6250998;28;20604;-75
2020/12/15 09:54:13;;;;;;;16.50;7.50;;;13.80;62.20;;;;;;6222217;28;20068;-73
2020/12/15 09:57:14;;;;;;;11.27;4.07;;;13.80;61.70;;;;;;6249634;28;20533;-73
2020/12/15 10:00:14;;;;;;;23.92;9.90;;;13.90;61.70;;;;;;6257396;28;20037;-73
2020/12/15 10:03:15;;;;;;;9.52;3.60;;;13.90;61.80;;;;;;6256069;28;20378;-73
2020/12/15 10:06:17;;;;;;;8.48;4.47;;;14.00;61.90;;;;;;6242631;28;20033;-72
2020/12/15 10:09:18;;;;;;;16.02;4.97;;;14.00;61.70;;;;;;6258050;28;20056;-74
2020/12/15 10:12:19;;;;;;;15.82;5.38;;;14.10;61.70;;;;;;6258539;28;20029;-72
2020/12/15 10:15:21;;;;;;;15.80;5.47;;;14.20;61.60;;;;;;6242279;28;20040;-73
2020/12/15 10:18:22;;;;;;;13.18;5.53;;;14.30;61.30;;;;;;6256503;28;20486;-73
2020/12/15 10:21:23;;;;;;;11.93;5.47;;;14.30;61.10;;;;;;6257092;28;20040;-73
2020/12/15 10:24:24;;;;;;;11.73;4.50;;;14.40;61.20;;;;;;6242956;28;20032;-72
2020/12/15 10:27:25;;;;;;;9.40;3.88;;;14.50;61.10;;;;;;6225411;28;20037;-73
2020/12/15 10:30:26;;;;;;;10.65;4.18;;;14.60;61.00;;;;;;6256990;28;20037;-73
2020/12/15 10:33:27;;;;;;;19.92;9.07;;;14.70;60.80;;;;;;6258137;28;20064;-73
2020/12/15 10:36:28;;;;;;;14.25;4.95;;;14.70;60.70;;;;;;6257311;28;20430;-73
2020/12/15 10:39:28;;;;;;;8.63;4.30;;;14.80;60.60;;;;;;6261762;28;20660;-72
2020/12/15 10:42:29;;;;;;;17.27;4.25;;;14.80;60.30;;;;;;6267673;28;20079;-73
2020/12/15 10:45:30;;;;;;;13.27;6.03;;;14.80;60.30;;;;;;6252449;28;20061;-73
2020/12/15 10:48:31;;;;;;;30.60;14.18;;;14.70;60.20;;;;;;6258762;28;20025;-73
2020/12/15 10:51:32;;;;;;;12.00;4.82;;;14.70;60.20;;;;;;6255415;28;20063;-73
2020/12/15 10:54:34;;;;;;;15.98;6.28;;;14.50;61.20;;;;;;6245075;28;20045;-72
2020/12/15 10:57:36;;;;;;;17.17;5.53;;;14.50;60.70;;;;;;6259147;28;20029;-72
2020/12/15 11:00:37;;;;;;;17.73;8.27;;;14.50;60.80;;;;;;6259269;28;20045;-72
2020/12/15 11:03:38;;;;;;;14.45;5.13;;;14.40;61.10;;;;;;6254374;28;20044;-73
2020/12/15 11:06:40;;;;;;;12.82;4.30;;;14.30;61.30;;;;;;6256227;28;20029;-73
2020/12/15 11:09:41;;;;;;;13.10;5.72;;;14.30;61.70;;;;;;6203072;28;20490;-74
2020/12/15 11:12:42;;;;;;;20.27;5.93;;;14.30;61.80;;;;;;6228203;28;20034;-73
2020/12/15 11:15:43;;;;;;;29.08;10.82;;;14.40;62.00;;;;;;6224137;28;20517;-74
2020/12/15 11:18:44;;;;;;;18.73;8.38;;;14.40;61.70;;;;;;6242187;28;20060;-74
2020/12/15 11:21:47;;;;;;;11.50;5.95;;;14.50;61.80;;;;;;6245151;28;20190;-74
2020/12/15 11:24:48;;;;;;;12.90;5.97;;;14.50;61.70;;;;;;6248532;28;20045;-74
2020/12/15 11:32:04;;;;;;;23.95;9.23;;;14.60;61.40;;;;;;6259918;28;20064;-74
2020/12/15 11:35:05;;;;;;;12.90;5.38;;;14.60;61.10;;;;;;6247953;28;20544;-75
2020/12/15 11:38:06;;;;;;;18.20;5.50;;;14.70;61.00;;;;;;6259575;28;20040;-73
2020/12/15 11:41:07;;;;;;;16.02;6.30;;;14.70;60.90;;;;;;6258783;28;20122;-74
2020/12/15 11:48:33;;;;;;;14.45;5.55;;;14.90;61.10;;;;;;6140154;28;20185;-74
2020/12/15 11:51:34;;;;;;;15.95;6.10;;;14.90;60.80;;;;;;6153071;28;20035;-73
2020/12/15 11:54:35;;;;;;;16.52;6.30;;;14.90;60.50;;;;;;6170972;28;20121;-74
2020/12/15 11:57:36;;;;;;;14.95;6.00;;;14.90;60.40;;;;;;6165111;28;20039;-73
2020/12/15 12:00:37;;;;;;;14.35;5.78;;;15.00;60.40;;;;;;6144579;28;20039;-73
2020/12/15 12:03:38;;;;;;;16.83;5.53;;;15.10;60.40;;;;;;6127130;28;20122;-73
2020/12/15 12:06:38;;;;;;;9.25;4.05;;;15.10;60.20;;;;;;6151513;28;20152;-73
2020/12/15 12:09:39;;;;;;;10.85;4.60;;;15.10;60.00;;;;;;6138581;28;20046;-73
2020/12/15 12:12:41;;;;;;;11.27;4.65;;;15.20;59.90;;;;;;6152279;28;20175;-73
2020/12/15 12:15:42;;;;;;;12.40;4.72;;;15.20;60.00;;;;;;6160197;28;20031;-73
2020/12/15 12:18:43;;;;;;;11.73;4.82;;;15.20;59.90;;;;;;6167642;28;20050;-73
2020/12/15 12:21:44;;;;;;;34.80;15.23;;;15.20;59.90;;;;;;6169225;28;20053;-73
2020/12/15 12:24:46;;;;;;;23.88;10.88;;;15.30;59.90;;;;;;6228171;28;20037;-73
2020/12/15 12:27:46;;;;;;;18.75;6.13;;;15.40;59.80;;;;;;6247112;28;20029;-73
2020/12/15 12:30:47;;;;;;;14.48;5.97;;;15.40;59.80;;;;;;6244861;28;20052;-73
2020/12/15 12:33:48;;;;;;;18.17;7.45;;;15.40;59.60;;;;;;6238872;28;20064;-73
2020/12/15 12:36:49;;;;;;;11.15;5.55;;;15.40;59.50;;;;;;6259172;28;20079;-72
2020/12/15 12:39:50;;;;;;;14.50;5.38;;;15.40;59.50;;;;;;6255130;28;20052;-72
2020/12/15 12:42:51;;;;;;;13.38;6.03;;;15.50;59.50;;;;;;6255578;28;20040;-73
2020/12/15 12:45:52;;;;;;;14.50;6.05;;;15.40;59.50;;;;;;6261137;28;20121;-73
2020/12/15 12:48:53;;;;;;;13.25;5.10;;;15.40;59.50;;;;;;6262615;28;20476;-72
2020/12/15 12:51:54;;;;;;;10.57;4.80;;;15.30;59.40;;;;;;6260661;28;20037;-73
2020/12/15 12:54:55;;;;;;;16.38;6.78;;;15.30;59.50;;;;;;6258694;28;20478;-73
2020/12/15 12:57:56;;;;;;;16.30;6.45;;;15.20;59.40;;;;;;6257551;28;20157;-73
2020/12/15 13:00:57;;;;;;;12.68;6.15;;;15.20;59.60;;;;;;6258851;28;20473;-74
2020/12/15 13:03:58;;;;;;;15.68;5.95;;;15.10;59.70;;;;;;6255027;28;20519;-76
2020/12/15 13:06:59;;;;;;;14.07;6.25;;;15.00;59.70;;;;;;6229748;28;20076;-73
2020/12/15 13:10:06;;;;;;;16.70;5.13;;;15.00;59.90;;;;;;6251927;28;20041;-74
2020/12/15 13:13:07;;;;;;;14.70;4.72;;;15.00;60.00;;;;;;6240874;28;20494;-74
2020/12/15 13:16:08;;;;;;;9.32;4.55;;;15.00;60.20;;;;;;6247504;28;20041;-73
2020/12/15 13:19:09;;;;;;;12.93;4.95;;;14.90;60.20;;;;;;6224145;28;20120;-73
2020/12/15 13:22:11;;;;;;;14.18;6.32;;;14.90;60.30;;;;;;6231105;28;20421;-73
2020/12/15 13:25:12;;;;;;;14.00;5.78;;;14.90;60.50;;;;;;6252345;28;20029;-74
2020/12/15 13:28:16;;;;;;;12.18;5.82;;;14.90;60.50;;;;;;6255137;28;20068;-73
2020/12/15 13:31:17;;;;;;;14.60;6.10;;;14.90;60.50;;;;;;6243162;28;20029;-73
2020/12/15 13:34:18;;;;;;;13.55;5.32;;;14.90;60.40;;;;;;6256546;28;20037;-73
2020/12/15 13:37:19;;;;;;;15.77;5.75;;;14.90;61.30;;;;;;6229671;28;20056;-73
2020/12/15 13:40:21;;;;;;;9.90;5.43;;;14.90;60.40;;;;;;6231243;28;20092;-73
2020/12/15 13:43:22;;;;;;;16.20;7.35;;;14.90;60.50;;;;;;6216858;28;20378;-73
2020/12/15 13:46:23;;;;;;;12.60;6.22;;;14.90;60.60;;;;;;6211901;28;20139;-73
2020/12/15 13:49:24;;;;;;;16.38;5.80;;;14.80;60.70;;;;;;6253397;28;20412;-73
2020/12/15 13:52:27;;;;;;;18.85;5.50;;;14.80;60.80;;;;;;6243878;28;20029;-73
2020/12/15 13:55:28;;;;;;;16.23;5.97;;;14.80;61.00;;;;;;6241525;28;20041;-73
2020/12/15 13:58:31;;;;;;;14.40;5.72;;;14.80;61.00;;;;;;6249355;28;20037;-73
2020/12/15 14:01:32;;;;;;;13.32;5.65;;;14.80;61.10;;;;;;6249058;28;20045;-72
2020/12/15 14:04:33;;;;;;;17.52;5.97;;;14.80;61.10;;;;;;6257168;28;20039;-73
2020/12/15 14:07:35;;;;;;;14.77;5.97;;;14.90;61.20;;;;;;6238082;28;20040;-73
2020/12/15 14:10:36;;;;;;;15.85;6.65;;;14.90;61.10;;;;;;6239240;28;20458;-74
2020/12/15 14:13:37;;;;;;;14.05;5.63;;;14.90;61.10;;;;;;6244617;28;20072;-74
2020/12/15 14:16:43;;;;;;;14.07;5.85;;;14.90;61.20;;;;;;6257093;28;20029;-74
2020/12/15 14:19:43;;;;;;;16.17;6.20;;;14.90;61.30;;;;;;6234198;28;20385;-72
2020/12/15 14:22:44;;;;;;;13.20;5.60;;;14.90;61.20;;;;;;6246706;28;20121;-74
2020/12/15 14:25:45;;;;;;;17.40;5.85;;;14.90;61.20;;;;;;6253869;28;20034;-74
2020/12/15 14:28:46;;;;;;;15.77;6.22;;;14.90;61.20;;;;;;6254739;28;20036;-73
2020/12/15 14:31:48;;;;;;;16.48;5.97;;;14.90;61.10;;;;;;6247607;28;20041;-73
2020/12/15 14:34:49;;;;;;;12.85;5.13;;;15.00;61.20;;;;;;6242038;28;20065;-73
2020/12/15 14:37:50;;;;;;;11.68;4.80;;;15.00;61.10;;;;;;6252895;28;20045;-73
2020/12/15 14:44:46;;;;;;;11.27;5.35;;;15.10;61.00;;;;;;6106348;28;20475;-73
2020/12/15 14:47:48;;;;;;;13.23;5.82;;;15.10;60.90;;;;;;6171463;28;20119;-73
2020/12/15 14:50:48;;;;;;;13.82;5.85;;;15.10;60.80;;;;;;6165124;28;20055;-72
2020/12/15 14:53:50;;;;;;;13.80;6.35;;;15.20;60.90;;;;;;6162730;28;20123;-72
2020/12/15 14:56:52;;;;;;;11.13;5.55;;;15.20;60.80;;;;;;6152157;28;20501;-73
2020/12/15 14:59:53;;;;;;;9.15;5.53;;;15.20;60.70;;;;;;6164683;28;20511;-73
2020/12/15 15:02:53;;;;;;;11.98;5.97;;;15.30;60.60;;;;;;6148319;28;20096;-74
2020/12/15 15:05:54;;;;;;;15.45;6.18;;;15.30;60.40;;;;;;6156099;28;20483;-72
2020/12/15 15:08:57;;;;;;;19.38;7.93;;;15.30;60.30;;;;;;6146342;28;20140;-73
2020/12/15 15:11:59;;;;;;;14.38;6.03;;;15.30;60.40;;;;;;6145989;28;20487;-73
2020/12/15 15:15:00;;;;;;;14.00;5.53;;;15.30;60.40;;;;;;6160535;28;20043;-73
2020/12/15 15:18:01;;;;;;;12.80;5.47;;;15.20;60.20;;;;;;6146124;28;20047;-73
2020/12/15 15:21:03;;;;;;;12.55;5.85;;;15.20;60.20;;;;;;6177137;28;20537;-73
2020/12/15 15:24:04;;;;;;;13.15;5.13;;;15.20;60.20;;;;;;6241913;28;20030;-73
2020/12/15 15:27:05;;;;;;;13.90;5.47;;;15.10;60.00;;;;;;6244726;28;20033;-73
2020/12/15 15:30:07;;;;;;;13.68;5.90;;;15.10;60.00;;;;;;6257127;28;20037;-73
2020/12/15 15:33:08;;;;;;;14.45;6.47;;;15.00;59.90;;;;;;6257235;28;20048;-72
2020/12/15 15:36:12;;;;;;;16.13;5.65;;;15.00;60.10;;;;;;6247783;28;20057;-73
2020/12/15 15:39:15;;;;;;;12.98;6.00;;;14.90;60.20;;;;;;6244182;28;20033;-73
2020/12/15 15:42:16;;;;;;;12.05;5.72;;;14.90;60.20;;;;;;6253956;28;20040;-74
2020/12/15 15:45:18;;;;;;;14.07;5.57;;;14.80;60.20;;;;;;6243036;28;20366;-74
2020/12/15 15:48:19;;;;;;;13.10;6.47;;;14.80;60.30;;;;;;6253874;28;20071;-74
2020/12/15 15:51:20;;;;;;;13.75;5.50;;;14.80;60.40;;;;;;6257459;28;20037;-74
2020/12/15 15:54:22;;;;;;;14.55;7.05;;;14.70;60.50;;;;;;6234917;28;20040;-74
2020/12/15 15:57:23;;;;;;;17.02;7.60;;;14.70;60.60;;;;;;6242823;28;20115;-72
2020/12/15 16:00:24;;;;;;;13.40;5.97;;;14.60;60.70;;;;;;6258236;28;20132;-73
2020/12/15 16:03:25;;;;;;;11.80;5.82;;;14.50;60.70;;;;;;6256695;28;20038;-73
2020/12/15 16:06:26;;;;;;;13.10;5.72;;;14.60;61.00;;;;;;6243605;28;20378;-73
2020/12/15 16:09:27;;;;;;;13.43;5.60;;;14.60;61.10;;;;;;6261166;28;20107;-73
2020/12/15 16:12:29;;;;;;;14.68;6.18;;;14.60;61.20;;;;;;6261731;28;20040;-73